sensor_id;sensor_type;location;lat;lon;timestamp;pressure;altitude;pressure_sealevel;temperature;humidity
60817;BME280;51921;51.518;-3.188;2023-03-03T00:01:55;102505.09;;;-0.41;95.02
60817;BME280;51921;51.518;-3.188;2023-03-03T00:04:21;102503.42;;;0.58;94.32
60817;BME280;51921;51.518;-3.188;2023-03-03T00:06:46;102504.99;;;1.71;87.49
60817;BME280;51921;51.518;-3.188;2023-03-03T00:09:11;102509.38;;;0.22;92.11
60817;BME280;51921;51.518;-3.188;2023-03-03T00:11:37;102509.74;;;0.88;92.96
60817;BME280;51921;51.518;-3.188;2023-03-03T00:14:02;102513.42;;;0.83;89.13
60817;BME280;51921;51.518;-3.188;2023-03-03T00:16:29;102514.91;;;-0.55;92.66
60817;BME280;51921;51.518;-3.188;2023-03-03T00:18:54;102516.80;;;0.31;92.12
60817;BME280;51921;51.518;-3.188;2023-03-03T00:21:24;102514.73;;;1.53;84.75
60817;BME280;51921;51.518;-3.188;2023-03-03T00:23:44;102515.35;;;2.37;79.62
60817;BME280;51921;51.518;-3.188;2023-03-03T00:26:17;102521.27;;;3.01;75.88
60817;BME280;51921;51.518;-3.188;2023-03-03T00:28:43;102516.15;;;3.88;72.72
60817;BME280;51921;51.518;-3.188;2023-03-03T00:31:01;102515.61;;;5.13;68.30
60817;BME280;51921;51.518;-3.188;2023-03-03T00:33:30;102519.03;;;4.30;68.19
60817;BME280;51921;51.518;-3.188;2023-03-03T00:35:51;102518.83;;;4.83;66.67
60817;BME280;51921;51.518;-3.188;2023-03-03T00:38:18;102516.80;;;4.64;66.76
60817;BME280;51921;51.518;-3.188;2023-03-03T00:40:42;102524.66;;;3.18;67.45
60817;BME280;51921;51.518;-3.188;2023-03-03T00:43:17;102526.04;;;4.27;65.77
60817;BME280;51921;51.518;-3.188;2023-03-03T00:45:39;102530.97;;;3.32;68.22
60817;BME280;51921;51.518;-3.188;2023-03-03T00:48:19;102526.46;;;3.51;69.25
60817;BME280;51921;51.518;-3.188;2023-03-03T00:50:29;102530.13;;;3.27;68.71
60817;BME280;51921;51.518;-3.188;2023-03-03T00:53:02;102523.38;;;4.47;65.51
60817;BME280;51921;51.518;-3.188;2023-03-03T00:55:15;102522.97;;;4.66;65.76
60817;BME280;51921;51.518;-3.188;2023-03-03T00:57:41;102530.47;;;4.03;65.74
60817;BME280;51921;51.518;-3.188;2023-03-03T01:00:13;102527.62;;;0.95;81.24
60817;BME280;51921;51.518;-3.188;2023-03-03T01:02:32;102531.56;;;-0.67;90.68
60817;BME280;51921;51.518;-3.188;2023-03-03T01:04:57;102534.43;;;-1.16;99.64
60817;BME280;51921;51.518;-3.188;2023-03-03T01:07:24;102534.14;;;-1.02;100.00
60817;BME280;51921;51.518;-3.188;2023-03-03T01:09:48;102532.29;;;-1.00;100.00
60817;BME280;51921;51.518;-3.188;2023-03-03T01:12:15;102536.47;;;-0.60;100.00
60817;BME280;51921;51.518;-3.188;2023-03-03T01:14:40;102534.87;;;-0.87;100.00
60817;BME280;51921;51.518;-3.188;2023-03-03T01:17:06;102536.06;;;-1.29;100.00
60817;BME280;51921;51.518;-3.188;2023-03-03T01:19:31;102540.97;;;-0.74;100.00
60817;BME280;51921;51.518;-3.188;2023-03-03T01:21:57;102541.26;;;-0.54;100.00
60817;BME280;51921;51.518;-3.188;2023-03-03T01:24:22;102539.90;;;-1.69;100.00
60817;BME280;51921;51.518;-3.188;2023-03-03T01:26:48;102536.79;;;-1.44;100.00
60817;BME280;51921;51.518;-3.188;2023-03-03T01:29:14;102543.50;;;-1.84;100.00
60817;BME280;51921;51.518;-3.188;2023-03-03T01:31:39;102544.12;;;-1.11;100.00
60817;BME280;51921;51.518;-3.188;2023-03-03T01:34:05;102536.62;;;-1.44;100.00
60817;BME280;51921;51.518;-3.188;2023-03-03T01:36:30;102540.23;;;-0.79;100.00
60817;BME280;51921;51.518;-3.188;2023-03-03T01:38:56;102538.89;;;-1.28;100.00
60817;BME280;51921;51.518;-3.188;2023-03-03T01:41:21;102544.89;;;-1.42;100.00
60817;BME280;51921;51.518;-3.188;2023-03-03T01:43:48;102552.09;;;-1.07;100.00
60817;BME280;51921;51.518;-3.188;2023-03-03T01:46:28;102551.65;;;-1.45;100.00
60817;BME280;51921;51.518;-3.188;2023-03-03T01:48:41;102553.00;;;0.08;100.00
60817;BME280;51921;51.518;-3.188;2023-03-03T01:51:11;102553.91;;;-0.76;98.43
60817;BME280;51921;51.518;-3.188;2023-03-03T01:53:36;102554.00;;;-0.68;100.00
60817;BME280;51921;51.518;-3.188;2023-03-03T01:55:55;102555.09;;;-1.07;100.00
60817;BME280;51921;51.518;-3.188;2023-03-03T01:58:25;102554.28;;;-0.69;100.00
60817;BME280;51921;51.518;-3.188;2023-03-03T02:00:49;102556.44;;;-1.08;100.00
60817;BME280;51921;51.518;-3.188;2023-03-03T02:03:13;102563.13;;;0.08;100.00
60817;BME280;51921;51.518;-3.188;2023-03-03T02:05:39;102563.73;;;0.16;96.53
60817;BME280;51921;51.518;-3.188;2023-03-03T02:08:05;102564.13;;;-0.44;100.00
60817;BME280;51921;51.518;-3.188;2023-03-03T02:10:30;102562.12;;;-0.51;100.00
60817;BME280;51921;51.518;-3.188;2023-03-03T02:12:56;102562.90;;;-1.21;100.00
60817;BME280;51921;51.518;-3.188;2023-03-03T02:15:23;102560.55;;;-1.30;100.00
60817;BME280;51921;51.518;-3.188;2023-03-03T02:17:48;102562.42;;;-1.10;100.00
60817;BME280;51921;51.518;-3.188;2023-03-03T02:20:15;102565.32;;;-1.44;100.00
60817;BME280;51921;51.518;-3.188;2023-03-03T02:22:42;102560.44;;;-1.45;100.00
60817;BME280;51921;51.518;-3.188;2023-03-03T02:25:10;102560.88;;;-1.59;100.00
60817;BME280;51921;51.518;-3.188;2023-03-03T02:27:30;102562.75;;;-0.87;100.00
60817;BME280;51921;51.518;-3.188;2023-03-03T02:29:55;102557.48;;;-1.37;100.00
60817;BME280;51921;51.518;-3.188;2023-03-03T02:32:21;102557.64;;;-1.14;100.00
60817;BME280;51921;51.518;-3.188;2023-03-03T02:34:48;102555.51;;;-1.47;100.00
60817;BME280;51921;51.518;-3.188;2023-03-03T02:37:14;102561.87;;;-1.54;100.00
60817;BME280;51921;51.518;-3.188;2023-03-03T02:39:38;102563.78;;;-1.77;100.00
60817;BME280;51921;51.518;-3.188;2023-03-03T02:42:08;102553.01;;;-1.56;100.00
60817;BME280;51921;51.518;-3.188;2023-03-03T02:44:31;102549.97;;;-1.61;100.00
60817;BME280;51921;51.518;-3.188;2023-03-03T02:46:56;102552.01;;;-1.53;100.00
60817;BME280;51921;51.518;-3.188;2023-03-03T02:49:23;102547.77;;;-1.80;100.00
60817;BME280;51921;51.518;-3.188;2023-03-03T02:51:46;102547.52;;;-1.53;100.00
60817;BME280;51921;51.518;-3.188;2023-03-03T02:54:13;102547.88;;;-1.53;100.00
60817;BME280;51921;51.518;-3.188;2023-03-03T02:56:38;102551.53;;;-0.94;100.00
60817;BME280;51921;51.518;-3.188;2023-03-03T02:59:04;102549.35;;;-1.67;100.00
60817;BME280;51921;51.518;-3.188;2023-03-03T03:01:29;102552.91;;;-1.13;100.00
60817;BME280;51921;51.518;-3.188;2023-03-03T03:03:55;102551.53;;;-0.99;100.00
60817;BME280;51921;51.518;-3.188;2023-03-03T03:06:20;102554.91;;;-0.79;100.00
60817;BME280;51921;51.518;-3.188;2023-03-03T03:08:46;102557.82;;;-0.25;100.00
60817;BME280;51921;51.518;-3.188;2023-03-03T03:11:11;102556.60;;;-1.24;100.00
60817;BME280;51921;51.518;-3.188;2023-03-03T03:13:37;102555.75;;;-0.95;100.00
60817;BME280;51921;51.518;-3.188;2023-03-03T03:16:03;102553.07;;;-1.10;100.00
60817;BME280;51921;51.518;-3.188;2023-03-03T03:18:28;102549.75;;;-0.87;100.00
60817;BME280;51921;51.518;-3.188;2023-03-03T03:20:54;102547.32;;;-1.02;100.00
60817;BME280;51921;51.518;-3.188;2023-03-03T03:23:19;102544.83;;;-0.96;100.00
60817;BME280;51921;51.518;-3.188;2023-03-03T03:25:45;102542.85;;;-1.73;100.00
60817;BME280;51921;51.518;-3.188;2023-03-03T03:28:11;102542.10;;;-1.17;100.00
60817;BME280;51921;51.518;-3.188;2023-03-03T03:30:37;102546.89;;;-1.12;100.00
60817;BME280;51921;51.518;-3.188;2023-03-03T03:33:02;102545.56;;;-0.96;100.00
60817;BME280;51921;51.518;-3.188;2023-03-03T03:35:28;102542.71;;;-0.71;99.49
60817;BME280;51921;51.518;-3.188;2023-03-03T03:37:54;102545.43;;;-0.64;97.22
60817;BME280;51921;51.518;-3.188;2023-03-03T03:40:19;102547.04;;;-0.59;98.09
60817;BME280;51921;51.518;-3.188;2023-03-03T03:42:45;102541.88;;;-1.44;100.00
60817;BME280;51921;51.518;-3.188;2023-03-03T03:45:11;102548.12;;;-0.68;100.00
60817;BME280;51921;51.518;-3.188;2023-03-03T03:47:36;102547.01;;;-1.07;100.00
60817;BME280;51921;51.518;-3.188;2023-03-03T03:50:02;102544.41;;;-1.74;100.00
60817;BME280;51921;51.518;-3.188;2023-03-03T03:52:28;102545.62;;;-1.18;100.00
60817;BME280;51921;51.518;-3.188;2023-03-03T03:54:53;102548.27;;;-0.64;100.00
60817;BME280;51921;51.518;-3.188;2023-03-03T03:57:19;102543.05;;;-0.89;99.83
60817;BME280;51921;51.518;-3.188;2023-03-03T03:59:45;102542.19;;;-0.28;97.49
60817;BME280;51921;51.518;-3.188;2023-03-03T04:02:11;102541.48;;;-0.76;99.04
60817;BME280;51921;51.518;-3.188;2023-03-03T04:04:36;102537.57;;;-1.02;100.00
60817;BME280;51921;51.518;-3.188;2023-03-03T04:07:02;102535.45;;;-0.76;100.00
60817;BME280;51921;51.518;-3.188;2023-03-03T04:09:28;102537.57;;;-1.39;100.00
60817;BME280;51921;51.518;-3.188;2023-03-03T04:11:53;102536.53;;;-1.04;100.00
60817;BME280;51921;51.518;-3.188;2023-03-03T04:14:19;102534.85;;;-1.10;100.00
60817;BME280;51921;51.518;-3.188;2023-03-03T04:16:45;102534.68;;;-1.17;100.00
60817;BME280;51921;51.518;-3.188;2023-03-03T04:19:11;102529.38;;;-0.37;99.94
60817;BME280;51921;51.518;-3.188;2023-03-03T04:21:36;102534.50;;;-1.35;100.00
60817;BME280;51921;51.518;-3.188;2023-03-03T04:24:02;102531.17;;;-1.73;100.00
60817;BME280;51921;51.518;-3.188;2023-03-03T04:26:28;102533.38;;;-0.94;100.00
60817;BME280;51921;51.518;-3.188;2023-03-03T04:28:53;102535.61;;;-1.03;100.00
60817;BME280;51921;51.518;-3.188;2023-03-03T04:31:19;102535.42;;;-1.17;100.00
60817;BME280;51921;51.518;-3.188;2023-03-03T04:33:45;102536.56;;;-1.13;100.00
60817;BME280;51921;51.518;-3.188;2023-03-03T04:36:11;102538.09;;;-0.43;97.46
60817;BME280;51921;51.518;-3.188;2023-03-03T04:38:36;102536.96;;;-1.17;100.00
60817;BME280;51921;51.518;-3.188;2023-03-03T04:41:02;102539.69;;;-1.29;100.00
60817;BME280;51921;51.518;-3.188;2023-03-03T04:43:28;102538.36;;;-1.26;100.00
60817;BME280;51921;51.518;-3.188;2023-03-03T04:45:53;102540.44;;;-1.28;100.00
60817;BME280;51921;51.518;-3.188;2023-03-03T04:48:19;102541.50;;;-1.28;100.00
60817;BME280;51921;51.518;-3.188;2023-03-03T04:50:45;102539.99;;;-1.01;100.00
60817;BME280;51921;51.518;-3.188;2023-03-03T04:53:10;102544.50;;;-1.67;100.00
60817;BME280;51921;51.518;-3.188;2023-03-03T04:55:36;102544.94;;;-0.99;100.00
60817;BME280;51921;51.518;-3.188;2023-03-03T04:58:02;102545.44;;;-1.48;100.00
60817;BME280;51921;51.518;-3.188;2023-03-03T05:00:27;102545.92;;;-0.99;100.00
60817;BME280;51921;51.518;-3.188;2023-03-03T05:02:53;102543.95;;;-1.57;100.00
60817;BME280;51921;51.518;-3.188;2023-03-03T05:05:19;102545.85;;;-0.90;100.00
60817;BME280;51921;51.518;-3.188;2023-03-03T05:07:44;102548.02;;;-1.27;100.00
60817;BME280;51921;51.518;-3.188;2023-03-03T05:10:10;102549.34;;;-0.38;99.27
60817;BME280;51921;51.518;-3.188;2023-03-03T05:12:36;102546.52;;;-0.86;100.00
60817;BME280;51921;51.518;-3.188;2023-03-03T05:15:02;102545.14;;;-1.68;100.00
60817;BME280;51921;51.518;-3.188;2023-03-03T05:17:28;102547.37;;;-0.97;100.00
60817;BME280;51921;51.518;-3.188;2023-03-03T05:19:53;102546.11;;;-0.40;100.00
60817;BME280;51921;51.518;-3.188;2023-03-03T05:22:19;102550.61;;;-0.94;100.00
60817;BME280;51921;51.518;-3.188;2023-03-03T05:24:44;102545.94;;;-0.67;100.00
60817;BME280;51921;51.518;-3.188;2023-03-03T05:27:10;102548.74;;;-0.28;98.75
60817;BME280;51921;51.518;-3.188;2023-03-03T05:29:36;102546.79;;;-0.61;99.79
60817;BME280;51921;51.518;-3.188;2023-03-03T05:32:02;102545.66;;;-0.73;96.41
60817;BME280;51921;51.518;-3.188;2023-03-03T05:34:27;102548.86;;;-0.84;98.81
60817;BME280;51921;51.518;-3.188;2023-03-03T05:36:53;102548.68;;;-0.27;94.91
60817;BME280;51921;51.518;-3.188;2023-03-03T05:39:19;102545.71;;;-0.97;97.11
60817;BME280;51921;51.518;-3.188;2023-03-03T05:41:45;102545.86;;;-1.27;100.00
60817;BME280;51921;51.518;-3.188;2023-03-03T05:44:10;102541.86;;;-1.55;100.00
60817;BME280;51921;51.518;-3.188;2023-03-03T05:46:36;102543.00;;;-1.51;100.00
60817;BME280;51921;51.518;-3.188;2023-03-03T05:49:02;102543.54;;;-1.41;100.00
60817;BME280;51921;51.518;-3.188;2023-03-03T05:51:27;102545.99;;;-0.98;100.00
60817;BME280;51921;51.518;-3.188;2023-03-03T05:53:53;102545.56;;;-1.23;100.00
60817;BME280;51921;51.518;-3.188;2023-03-03T05:56:19;102539.20;;;-1.43;100.00
60817;BME280;51921;51.518;-3.188;2023-03-03T05:58:45;102543.04;;;-1.15;100.00
60817;BME280;51921;51.518;-3.188;2023-03-03T06:01:11;102543.13;;;-0.79;100.00
60817;BME280;51921;51.518;-3.188;2023-03-03T06:03:36;102543.78;;;-0.74;100.00
60817;BME280;51921;51.518;-3.188;2023-03-03T06:06:02;102543.51;;;-0.65;99.71
60817;BME280;51921;51.518;-3.188;2023-03-03T06:08:27;102545.93;;;-1.13;100.00
60817;BME280;51921;51.518;-3.188;2023-03-03T06:10:54;102546.50;;;-1.10;100.00
60817;BME280;51921;51.518;-3.188;2023-03-03T06:13:18;102548.32;;;-0.99;100.00
60817;BME280;51921;51.518;-3.188;2023-03-03T06:15:44;102549.78;;;-1.68;100.00
60817;BME280;51921;51.518;-3.188;2023-03-03T06:18:10;102550.78;;;-1.64;100.00
60817;BME280;51921;51.518;-3.188;2023-03-03T06:20:35;102553.71;;;-1.74;100.00
60817;BME280;51921;51.518;-3.188;2023-03-03T06:23:01;102556.13;;;-1.69;100.00
60817;BME280;51921;51.518;-3.188;2023-03-03T06:25:27;102554.67;;;-1.68;100.00
60817;BME280;51921;51.518;-3.188;2023-03-03T06:27:52;102555.44;;;-2.00;100.00
60817;BME280;51921;51.518;-3.188;2023-03-03T06:30:18;102558.24;;;-1.12;100.00
60817;BME280;51921;51.518;-3.188;2023-03-03T06:32:43;102562.58;;;-1.30;100.00
60817;BME280;51921;51.518;-3.188;2023-03-03T06:35:09;102562.23;;;-1.68;100.00
60817;BME280;51921;51.518;-3.188;2023-03-03T06:37:34;102565.56;;;-1.62;100.00
60817;BME280;51921;51.518;-3.188;2023-03-03T06:40:00;102568.99;;;-1.61;100.00
60817;BME280;51921;51.518;-3.188;2023-03-03T06:42:26;102568.97;;;-1.24;100.00
60817;BME280;51921;51.518;-3.188;2023-03-03T06:44:51;102573.88;;;-1.46;100.00
60817;BME280;51921;51.518;-3.188;2023-03-03T06:47:17;102571.48;;;-1.57;100.00
60817;BME280;51921;51.518;-3.188;2023-03-03T06:49:43;102569.04;;;-1.31;100.00
60817;BME280;51921;51.518;-3.188;2023-03-03T06:52:11;102577.19;;;-1.72;100.00
60817;BME280;51921;51.518;-3.188;2023-03-03T06:54:37;102579.51;;;-0.86;100.00
60817;BME280;51921;51.518;-3.188;2023-03-03T06:57:06;102583.69;;;-0.90;100.00
60817;BME280;51921;51.518;-3.188;2023-03-03T06:59:26;102582.49;;;-1.27;100.00
60817;BME280;51921;51.518;-3.188;2023-03-03T07:01:52;102586.98;;;-1.61;100.00
60817;BME280;51921;51.518;-3.188;2023-03-03T07:04:26;102593.07;;;-1.58;100.00
60817;BME280;51921;51.518;-3.188;2023-03-03T07:06:45;102593.69;;;-1.61;100.00
60817;BME280;51921;51.518;-3.188;2023-03-03T07:09:17;102593.35;;;-1.32;100.00
60817;BME280;51921;51.518;-3.188;2023-03-03T07:11:35;102601.20;;;-1.87;100.00
60817;BME280;51921;51.518;-3.188;2023-03-03T07:13:59;102604.20;;;-1.90;100.00
60817;BME280;51921;51.518;-3.188;2023-03-03T07:16:26;102603.21;;;-1.61;100.00
60817;BME280;51921;51.518;-3.188;2023-03-03T07:18:52;102605.70;;;-1.76;100.00
60817;BME280;51921;51.518;-3.188;2023-03-03T07:21:19;102605.12;;;-1.48;100.00
60817;BME280;51921;51.518;-3.188;2023-03-03T07:23:43;102597.08;;;-1.35;100.00
60817;BME280;51921;51.518;-3.188;2023-03-03T07:26:10;102605.92;;;-1.61;100.00
60817;BME280;51921;51.518;-3.188;2023-03-03T07:28:33;102609.54;;;-1.63;100.00
60817;BME280;51921;51.518;-3.188;2023-03-03T07:30:59;102614.03;;;-1.54;100.00
60817;BME280;51921;51.518;-3.188;2023-03-03T07:33:26;102614.54;;;-1.71;100.00
60817;BME280;51921;51.518;-3.188;2023-03-03T07:35:51;102613.90;;;-1.64;100.00
60817;BME280;51921;51.518;-3.188;2023-03-03T07:38:22;102615.21;;;-1.74;100.00
60817;BME280;51921;51.518;-3.188;2023-03-03T07:40:46;102613.94;;;-2.00;100.00
60817;BME280;51921;51.518;-3.188;2023-03-03T07:45:36;102621.60;;;-1.76;100.00
60817;BME280;51921;51.518;-3.188;2023-03-03T07:48:03;102619.77;;;-1.82;100.00
60817;BME280;51921;51.518;-3.188;2023-03-03T07:50:23;102624.45;;;-1.57;100.00
60817;BME280;51921;51.518;-3.188;2023-03-03T07:52:53;102622.44;;;-1.41;100.00
60817;BME280;51921;51.518;-3.188;2023-03-03T07:55:25;102627.63;;;-1.86;100.00
60817;BME280;51921;51.518;-3.188;2023-03-03T07:57:40;102630.34;;;-1.68;100.00
60817;BME280;51921;51.518;-3.188;2023-03-03T08:02:37;102629.42;;;-1.68;100.00
60817;BME280;51921;51.518;-3.188;2023-03-03T08:04:57;102632.58;;;-1.70;100.00
60817;BME280;51921;51.518;-3.188;2023-03-03T08:07:23;102630.38;;;-1.93;100.00
60817;BME280;51921;51.518;-3.188;2023-03-03T08:09:49;102632.48;;;-1.46;100.00
60817;BME280;51921;51.518;-3.188;2023-03-03T08:12:32;102635.66;;;-1.63;100.00
60817;BME280;51921;51.518;-3.188;2023-03-03T08:14:44;102636.20;;;-1.85;100.00
60817;BME280;51921;51.518;-3.188;2023-03-03T08:17:13;102641.37;;;-1.95;100.00
60817;BME280;51921;51.518;-3.188;2023-03-03T08:19:30;102644.40;;;-1.53;100.00
60817;BME280;51921;51.518;-3.188;2023-03-03T08:21:59;102641.42;;;-1.90;100.00
60817;BME280;51921;51.518;-3.188;2023-03-03T08:24:22;102646.10;;;-2.24;100.00
60817;BME280;51921;51.518;-3.188;2023-03-03T08:26:48;102647.51;;;-1.81;100.00
60817;BME280;51921;51.518;-3.188;2023-03-03T08:29:13;102651.04;;;-1.81;100.00
60817;BME280;51921;51.518;-3.188;2023-03-03T08:31:41;102646.67;;;-1.94;100.00
60817;BME280;51921;51.518;-3.188;2023-03-03T08:34:04;102655.26;;;-1.79;100.00
60817;BME280;51921;51.518;-3.188;2023-03-03T08:36:29;102657.82;;;-1.92;100.00
60817;BME280;51921;51.518;-3.188;2023-03-03T08:38:55;102663.67;;;-1.58;100.00
60817;BME280;51921;51.518;-3.188;2023-03-03T08:41:20;102667.36;;;-1.86;100.00
60817;BME280;51921;51.518;-3.188;2023-03-03T08:43:46;102672.51;;;-2.01;100.00
60817;BME280;51921;51.518;-3.188;2023-03-03T08:46:16;102674.47;;;-2.03;100.00
60817;BME280;51921;51.518;-3.188;2023-03-03T08:48:38;102680.00;;;-1.89;100.00
60817;BME280;51921;51.518;-3.188;2023-03-03T08:51:03;102678.52;;;-2.02;100.00
60817;BME280;51921;51.518;-3.188;2023-03-03T08:53:29;102679.27;;;-1.85;100.00
60817;BME280;51921;51.518;-3.188;2023-03-03T08:55:54;102680.17;;;-1.60;100.00
60817;BME280;51921;51.518;-3.188;2023-03-03T08:58:21;102683.41;;;-1.76;100.00
60817;BME280;51921;51.518;-3.188;2023-03-03T09:00:46;102681.85;;;-1.45;100.00
60817;BME280;51921;51.518;-3.188;2023-03-03T09:03:14;102683.90;;;-1.82;100.00
60817;BME280;51921;51.518;-3.188;2023-03-03T09:05:38;102686.77;;;-1.58;100.00
60817;BME280;51921;51.518;-3.188;2023-03-03T09:08:03;102686.88;;;-1.50;100.00
60817;BME280;51921;51.518;-3.188;2023-03-03T09:10:28;102688.65;;;-0.91;100.00
60817;BME280;51921;51.518;-3.188;2023-03-03T09:12:59;102694.22;;;-1.30;100.00
60817;BME280;51921;51.518;-3.188;2023-03-03T09:15:21;102694.91;;;-0.85;100.00
60817;BME280;51921;51.518;-3.188;2023-03-03T09:17:45;102696.66;;;-1.08;100.00
60817;BME280;51921;51.518;-3.188;2023-03-03T09:20:22;102698.23;;;-1.52;100.00
60817;BME280;51921;51.518;-3.188;2023-03-03T09:22:37;102700.64;;;-1.62;100.00
60817;BME280;51921;51.518;-3.188;2023-03-03T09:25:01;102704.11;;;-1.06;100.00
60817;BME280;51921;51.518;-3.188;2023-03-03T09:27:29;102709.06;;;-1.39;100.00
60817;BME280;51921;51.518;-3.188;2023-03-03T09:29:53;102707.03;;;-1.59;100.00
60817;BME280;51921;51.518;-3.188;2023-03-03T09:32:28;102706.42;;;-1.53;100.00
60817;BME280;51921;51.518;-3.188;2023-03-03T09:34:44;102706.96;;;-1.72;100.00
60817;BME280;51921;51.518;-3.188;2023-03-03T09:37:19;102708.80;;;-1.38;100.00
60817;BME280;51921;51.518;-3.188;2023-03-03T09:39:36;102707.44;;;-1.49;100.00
60817;BME280;51921;51.518;-3.188;2023-03-03T09:44:40;102711.21;;;-1.71;100.00
60817;BME280;51921;51.518;-3.188;2023-03-03T09:47:01;102713.11;;;-1.70;100.00
60817;BME280;51921;51.518;-3.188;2023-03-03T09:49:24;102715.84;;;-1.74;100.00
60817;BME280;51921;51.518;-3.188;2023-03-03T09:51:54;102719.99;;;-2.14;100.00
60817;BME280;51921;51.518;-3.188;2023-03-03T09:54:19;102724.45;;;-1.96;100.00
60817;BME280;51921;51.518;-3.188;2023-03-03T09:56:38;102718.67;;;-1.62;100.00
60817;BME280;51921;51.518;-3.188;2023-03-03T09:59:11;102722.39;;;-1.69;100.00
60817;BME280;51921;51.518;-3.188;2023-03-03T10:01:34;102720.97;;;-1.69;100.00
60817;BME280;51921;51.518;-3.188;2023-03-03T10:06:22;102724.64;;;-1.14;100.00
60817;BME280;51921;51.518;-3.188;2023-03-03T10:08:58;102723.25;;;-0.65;100.00
60817;BME280;51921;51.518;-3.188;2023-03-03T10:11:15;102718.85;;;-1.13;100.00
60817;BME280;51921;51.518;-3.188;2023-03-03T10:13:42;102728.20;;;-1.56;100.00
60817;BME280;51921;51.518;-3.188;2023-03-03T10:16:16;102726.96;;;-1.57;100.00
60817;BME280;51921;51.518;-3.188;2023-03-03T10:18:29;102732.92;;;-1.61;100.00
60817;BME280;51921;51.518;-3.188;2023-03-03T10:21:03;102735.34;;;-1.57;100.00
60817;BME280;51921;51.518;-3.188;2023-03-03T10:23:23;102737.82;;;-1.59;100.00
60817;BME280;51921;51.518;-3.188;2023-03-03T10:25:44;102738.12;;;-1.71;100.00
60817;BME280;51921;51.518;-3.188;2023-03-03T10:28:20;102739.34;;;-1.47;100.00
60817;BME280;51921;51.518;-3.188;2023-03-03T10:30:40;102741.29;;;-1.05;100.00
60817;BME280;51921;51.518;-3.188;2023-03-03T10:32:59;102737.42;;;-1.23;100.00
60817;BME280;51921;51.518;-3.188;2023-03-03T10:35:36;102741.03;;;-0.88;100.00
60817;BME280;51921;51.518;-3.188;2023-03-03T10:37:58;102741.77;;;-0.92;100.00
60817;BME280;51921;51.518;-3.188;2023-03-03T10:40:21;102744.17;;;-1.30;100.00
60817;BME280;51921;51.518;-3.188;2023-03-03T10:42:51;102741.53;;;-1.47;100.00
60817;BME280;51921;51.518;-3.188;2023-03-03T10:45:21;102745.86;;;-1.54;100.00
60817;BME280;51921;51.518;-3.188;2023-03-03T10:47:43;102748.63;;;-0.89;100.00
60817;BME280;51921;51.518;-3.188;2023-03-03T10:50:04;102750.85;;;-1.32;100.00
60817;BME280;51921;51.518;-3.188;2023-03-03T10:52:31;102748.48;;;-1.20;100.00
60817;BME280;51921;51.518;-3.188;2023-03-03T10:55:04;102748.86;;;-0.59;100.00
60817;BME280;51921;51.518;-3.188;2023-03-03T10:57:19;102751.22;;;-0.79;100.00
60817;BME280;51921;51.518;-3.188;2023-03-03T10:59:49;102749.89;;;-1.13;100.00
60817;BME280;51921;51.518;-3.188;2023-03-03T11:02:12;102752.10;;;-1.61;100.00
60817;BME280;51921;51.518;-3.188;2023-03-03T11:04:47;102752.23;;;-1.33;100.00
60817;BME280;51921;51.518;-3.188;2023-03-03T11:07:02;102756.34;;;-1.07;100.00
60817;BME280;51921;51.518;-3.188;2023-03-03T11:09:34;102747.71;;;-1.09;100.00
60817;BME280;51921;51.518;-3.188;2023-03-03T11:11:54;102748.76;;;-0.61;100.00
60817;BME280;51921;51.518;-3.188;2023-03-03T11:14:19;102746.42;;;-0.59;100.00
60817;BME280;51921;51.518;-3.188;2023-03-03T11:16:50;102747.44;;;-1.22;100.00
60817;BME280;51921;51.518;-3.188;2023-03-03T11:19:16;102745.85;;;-0.60;100.00
60817;BME280;51921;51.518;-3.188;2023-03-03T11:21:32;102748.42;;;-1.04;100.00
60817;BME280;51921;51.518;-3.188;2023-03-03T11:24:06;102756.36;;;-1.28;100.00
60817;BME280;51921;51.518;-3.188;2023-03-03T11:26:31;102759.24;;;-0.76;100.00
60817;BME280;51921;51.518;-3.188;2023-03-03T11:28:58;102757.77;;;-0.88;100.00
60817;BME280;51921;51.518;-3.188;2023-03-03T11:31:19;102759.49;;;-0.65;100.00
60817;BME280;51921;51.518;-3.188;2023-03-03T11:33:49;102759.46;;;-0.76;100.00
60817;BME280;51921;51.518;-3.188;2023-03-03T11:36:11;102761.36;;;-0.75;100.00
60817;BME280;51921;51.518;-3.188;2023-03-03T11:38:40;102759.29;;;-0.51;100.00
60817;BME280;51921;51.518;-3.188;2023-03-03T11:40:58;102763.33;;;-1.03;100.00
60817;BME280;51921;51.518;-3.188;2023-03-03T11:43:24;102760.88;;;-1.10;100.00
60817;BME280;51921;51.518;-3.188;2023-03-03T11:45:47;102763.81;;;-1.07;100.00
60817;BME280;51921;51.518;-3.188;2023-03-03T11:48:16;102762.10;;;-0.39;100.00
60817;BME280;51921;51.518;-3.188;2023-03-03T11:50:40;102760.95;;;-0.45;100.00
60817;BME280;51921;51.518;-3.188;2023-03-03T11:53:11;102766.41;;;-0.91;100.00
60817;BME280;51921;51.518;-3.188;2023-03-03T11:55:31;102763.50;;;-1.01;100.00
60817;BME280;51921;51.518;-3.188;2023-03-03T11:58:05;102770.16;;;-0.72;100.00
60817;BME280;51921;51.518;-3.188;2023-03-03T12:00:25;102758.84;;;-0.59;100.00
60817;BME280;51921;51.518;-3.188;2023-03-03T12:03:02;102751.55;;;0.10;100.00
60817;BME280;51921;51.518;-3.188;2023-03-03T12:05:14;102751.79;;;-0.13;100.00
60817;BME280;51921;51.518;-3.188;2023-03-03T12:07:43;102755.12;;;-0.85;100.00
60817;BME280;51921;51.518;-3.188;2023-03-03T12:10:09;102753.50;;;-1.00;100.00
60817;BME280;51921;51.518;-3.188;2023-03-03T12:12:31;102752.64;;;-0.85;100.00
60817;BME280;51921;51.518;-3.188;2023-03-03T12:14:58;102754.03;;;-1.21;100.00
60817;BME280;51921;51.518;-3.188;2023-03-03T12:19:51;102758.45;;;-0.91;100.00
60817;BME280;51921;51.518;-3.188;2023-03-03T12:22:22;102753.82;;;-0.70;100.00
60817;BME280;51921;51.518;-3.188;2023-03-03T12:24:52;102758.71;;;-0.51;100.00
60817;BME280;51921;51.518;-3.188;2023-03-03T12:27:10;102749.57;;;-0.94;100.00
60817;BME280;51921;51.518;-3.188;2023-03-03T12:29:31;102746.20;;;-0.74;100.00
60817;BME280;51921;51.518;-3.188;2023-03-03T12:31:55;102743.50;;;0.07;100.00
60817;BME280;51921;51.518;-3.188;2023-03-03T12:34:23;102746.24;;;-0.26;100.00
60817;BME280;51921;51.518;-3.188;2023-03-03T12:39:13;102738.29;;;0.01;100.00